Galveston, TX

3:55 AM CDT on June 29, 2017 (GMT -0500)
Galveston.com | | Change Station
Active Advisory: Beach Hazard Statement

Elev 36 ft 29.31 °N, 94.79 °W | Updated 3 seconds ago

Mostly Cloudy
Mostly Cloudy
79.9 °F
Feels Like 86 °F
N
8.6
Wind Variable Wind from SW
Gusts 19.0 mph

Today
High -- | Low -- °F
--% Chance of Precip.
Yesterday
High -- | Low -- °F
Precip. -- in
Pressure 29.85 in
Visibility 10.0 miles
Clouds Few 4500 ft
Scattered Clouds 6000 ft
Mostly Cloudy 7500 ft
Heat Index 86 °F
Dew Point 77 °F
Humidity 93%
Rainfall 0.05 in
Snow Depth Not available.
6:22 AM 8:22 PM
Waxing Crescent, 33% visible
METAR KGLS 290852Z AUTO 19012KT 10SM VCTS FEW045 SCT060 BKN075 26/25 A2985 RMK AO2 LTG DSNT ALQDS RAB06E15 SLP108 P0000 60002 T02610250 57010
Pressure 29.85 in
Visibility 10.0 miles
Clouds Few 4500 ft
Scattered Clouds 6000 ft
Mostly Cloudy 7500 ft
Heat Index 86 °F
Dew Point 77 °F
Humidity 93%
Rainfall 0.05 in
Snow Depth Not available.
6:22 AM 8:22 PM
Waxing Crescent, 33% visible
METAR KGLS 290852Z AUTO 19012KT 10SM VCTS FEW045 SCT060 BKN075 26/25 A2985 RMK AO2 LTG DSNT ALQDS RAB06E15 SLP108 P0000 60002 T02610250 57010

Get Your Daily Forecast Email!

Thanks for signing up!

Be on the lookout for a verification email in your inbox.

You'll start receiving severe weather alerts in your inbox..

×

10-Day Weather Forecast

Almanac

Astronomy

Jun. 29, 2017 Rise Set
Actual Time
Civil Twilight
Nautical Twilight
Astronomical Twilight
Moon
Length of Visible Light
Length of Day
Tomorrow will be .
, % of the Moon is Illuminated

Today's Extremes

State Highs State Lows

Community

WunderPhotos

Category 6

Welcome to Category 6. This is the collective home for Weather Underground's featured writeups by Dr. Jeff Masters (right), Bob Henson (left), Chris Burt, and other regular contributors.

Nearby

Air Quality

  Air Quality AQ Index Pollutant
Not available.

Snow Depth

Station Depth Elevation

Earthquake Activity

City Distance Mag. Time & Date
Minimum magnitude displayed is 2.5.

Coastal Water Temperatures

Place Temperature

Stations

Nearby Weather Stations

Station Location Temp. Windchill Dew Point Humidity Wind Precip. Elev Updated Type
                   

Watches & Warnings

Beach Hazard Statement
Issued: 6:50 PM CDT Jun. 28, 2017 – National Weather Service

... Beach hazards statement now in effect until 5 am CDT
Thursday...

* hazards... strong rip currents and lingering coastal flooding.

* Timing... through tonight.

* Location... low lying coastal areas and Gulf facing beaches.

* Potential impacts... hazardous swimming conditions and possible
lingering overwash onto shores as tides lower tonight.

Precautionary/preparedness actions...

A beach hazards statement is issued when threats such as rip
currents... longshore currents... sneaker waves and other hazards
create life-threatening conditions in the surf zone. Caution
should be used when in or near the water.